Time;durP1;ratioP1;P1;durP2;ratioP2;P2;SDS_P1;SDS_P2;PMS_P1;PMS_P2;Temp;Humidity;BMP_temperature;BMP_pressure;BME280_temperature;BME280_humidity;BME280_pressure;Samples;Min_cycle;Max_cycle;Signal;HPM_P1;HPM_P2
2023/10/09 00:03:04;;;;;;;6.78;2.10;;;;;;;9.46;100.00;101479.75;4932719;29;20440;-82
2023/10/09 00:05:45;;;;;;;6.00;2.15;;;;;;;9.49;100.00;101470.25;4927312;29;20447;-81
2023/10/09 00:08:21;;;;;;;6.18;2.05;;;;;;;9.40;100.00;101486.16;4930141;29;20445;-82
2023/10/09 00:10:52;;;;;;;6.07;1.95;;;;;;;9.40;100.00;101488.88;4929764;29;20907;-81
2023/10/09 00:13:31;;;;;;;6.68;2.03;;;;;;;9.42;100.00;101478.59;4929380;29;20417;-82
2023/10/09 00:16:15;;;;;;;5.05;2.10;;;;;;;9.45;100.00;101478.09;4918341;29;20435;-82
2023/10/09 00:18:49;;;;;;;7.07;2.10;;;;;;;9.47;100.00;101475.13;4926192;29;20429;-81
2023/10/09 00:21:27;;;;;;;6.47;2.10;;;;;;;9.42;100.00;101469.59;4921706;29;20530;-82
2023/10/09 00:23:59;;;;;;;10.85;2.50;;;;;;;9.43;100.00;101463.94;4929956;29;20425;-83
2023/10/09 00:26:30;;;;;;;5.28;2.03;;;;;;;9.41;100.00;101449.78;4929651;29;20428;-82
2023/10/09 00:29:05;;;;;;;3.75;1.95;;;;;;;9.31;100.00;101430.66;4926679;29;20429;-82
2023/10/09 00:31:50;;;;;;;4.70;2.08;;;;;;;9.33;100.00;101429.31;4926920;29;20427;-83
2023/10/09 00:34:19;;;;;;;4.88;2.00;;;;;;;9.30;100.00;101420.84;4924573;29;20820;-82
2023/10/09 00:36:51;;;;;;;5.75;2.30;;;;;;;9.34;100.00;101406.50;4930613;29;20919;-82
2023/10/09 00:39:33;;;;;;;5.80;2.17;;;;;;;9.29;100.00;101406.44;4932349;29;20900;-82
2023/10/09 00:42:07;;;;;;;6.77;2.10;;;;;;;9.26;100.00;101387.13;4943086;28;20416;-83
2023/10/09 00:44:41;;;;;;;5.80;2.08;;;;;;;9.26;100.00;101379.78;4928278;29;20424;-84
2023/10/09 00:47:22;;;;;;;6.05;2.30;;;;;;;9.25;100.00;101378.13;4925855;29;20437;-82
2023/10/09 00:49:54;;;;;;;8.73;2.30;;;;;;;9.12;100.00;101362.25;4930127;29;20438;-83
2023/10/09 00:52:32;;;;;;;7.20;2.20;;;;;;;9.17;100.00;101368.56;4920756;29;20420;-83
2023/10/09 00:55:06;;;;;;;7.18;2.25;;;;;;;9.12;100.00;101357.63;4932444;29;20430;-82
2023/10/09 00:57:40;;;;;;;6.47;2.40;;;;;;;9.14;100.00;101349.22;4917398;29;20546;-82
2023/10/09 01:00:31;;;;;;;8.60;2.30;;;;;;;9.13;100.00;101345.69;4930803;29;20444;-82
2023/10/09 01:03:18;;;;;;;7.53;2.10;;;;;;;9.08;100.00;101339.41;4931275;29;20427;-82
2023/10/09 01:05:57;;;;;;;8.15;2.20;;;;;;;9.08;100.00;101345.63;4927226;29;20450;-82
2023/10/09 01:08:30;;;;;;;7.50;2.33;;;;;;;9.15;100.00;101338.09;4932092;29;20431;-83
2023/10/09 01:11:08;;;;;;;5.55;2.03;;;;;;;9.10;100.00;101342.66;4935468;29;20431;-83
2023/10/09 01:13:52;;;;;;;7.65;2.50;;;;;;;9.07;100.00;101330.41;4930329;29;20438;-83
2023/10/09 01:16:25;;;;;;;7.18;2.20;;;;;;;9.04;100.00;101325.50;4932559;29;20440;-83
2023/10/09 01:18:57;;;;;;;7.32;2.30;;;;;;;9.01;100.00;101334.16;4923275;29;20442;-83
2023/10/09 01:21:31;;;;;;;8.48;2.50;;;;;;;8.98;100.00;101315.66;4928227;29;20424;-83
2023/10/09 01:24:08;;;;;;;7.47;2.55;;;;;;;8.96;100.00;101315.06;4939317;29;20441;-83
2023/10/09 01:26:44;;;;;;;7.05;2.30;;;;;;;8.99;100.00;101312.69;4933176;29;20411;-83
2023/10/09 01:29:19;;;;;;;8.85;2.45;;;;;;;9.00;100.00;101305.34;4926896;29;20900;-84
2023/10/09 01:31:54;;;;;;;5.43;2.30;;;;;;;9.03;100.00;101302.13;4921527;29;20435;-83
2023/10/09 01:34:38;;;;;;;6.85;2.20;;;;;;;8.99;100.00;101306.41;4931669;29;20460;-83
2023/10/09 01:37:11;;;;;;;7.10;2.30;;;;;;;9.01;100.00;101302.38;4928063;29;20821;-82
2023/10/09 01:39:48;;;;;;;8.10;2.67;;;;;;;9.01;100.00;101307.81;4933796;29;20435;-83
2023/10/09 01:42:31;;;;;;;5.38;2.25;;;;;;;9.02;100.00;101297.78;4928885;29;20434;-82
2023/10/09 01:45:26;;;;;;;7.38;2.22;;;;;;;8.91;100.00;101288.69;4939439;29;20440;-83
2023/10/09 01:47:55;;;;;;;7.82;2.42;;;;;;;9.09;100.00;101287.53;4923941;29;20427;-85
2023/10/09 01:50:30;;;;;;;5.63;2.47;;;;;;;8.95;100.00;101292.56;4928065;29;20528;-83
2023/10/09 01:53:00;;;;;;;9.75;2.60;;;;;;;9.02;100.00;101278.78;4935038;29;20428;-84
2023/10/09 01:55:34;;;;;;;7.78;2.70;;;;;;;9.03;100.00;101288.56;4931847;29;20441;-83
2023/10/09 01:58:17;;;;;;;7.93;2.45;;;;;;;8.98;100.00;101275.75;4923067;29;20440;-82
2023/10/09 02:00:54;;;;;;;6.72;2.30;;;;;;;8.95;100.00;101281.69;4929930;29;20431;-83
2023/10/09 02:03:29;;;;;;;6.90;2.30;;;;;;;8.93;100.00;101274.88;4927867;29;20433;-82
2023/10/09 02:05:59;;;;;;;9.13;2.85;;;;;;;8.88;100.00;101266.66;4934444;29;20439;-83
2023/10/09 02:08:35;;;;;;;5.15;2.40;;;;;;;8.89;100.00;101260.97;4927210;29;20504;-84
2023/10/09 02:11:14;;;;;;;8.40;2.65;;;;;;;8.92;100.00;101255.06;4919643;29;20945;-83
2023/10/09 02:13:42;;;;;;;7.60;2.63;;;;;;;8.97;100.00;101262.44;4930713;29;20440;-84
2023/10/09 02:16:26;;;;;;;7.40;2.30;;;;;;;8.94;100.00;101268.38;4926522;29;20921;-82
2023/10/09 02:18:59;;;;;;;6.82;2.40;;;;;;;8.93;100.00;101245.81;4927025;29;20444;-83
2023/10/09 02:21:39;;;;;;;6.95;2.50;;;;;;;8.91;100.00;101263.44;4930053;29;20445;-83
2023/10/09 02:24:26;;;;;;;6.28;2.20;;;;;;;8.88;100.00;101266.66;4922864;29;20436;-82
2023/10/09 02:27:07;;;;;;;5.78;2.20;;;;;;;8.79;100.00;101274.44;4946454;28;20421;-83
2023/10/09 02:29:38;;;;;;;9.15;2.13;;;;;;;8.78;100.00;101264.66;4925968;29;20438;-83
2023/10/09 02:32:24;;;;;;;5.97;2.25;;;;;;;8.70;100.00;101251.53;4915177;29;20421;-83
2023/10/09 02:34:53;;;;;;;6.90;2.20;;;;;;;8.83;100.00;101238.38;4928822;29;20419;-83
2023/10/09 02:37:31;;;;;;;4.90;2.00;;;;;;;8.93;100.00;101226.00;4924062;29;20427;-83
2023/10/09 02:40:08;;;;;;;7.78;2.35;;;;;;;8.81;100.00;101212.56;4922531;29;20433;-83
2023/10/09 02:42:42;;;;;;;7.55;2.30;;;;;;;8.79;100.00;101206.59;4934158;29;20443;-84
2023/10/09 02:45:24;;;;;;;5.47;2.22;;;;;;;8.79;100.00;101199.25;4917412;29;20437;-83
2023/10/09 02:47:59;;;;;;;9.88;2.28;;;;;;;8.78;100.00;101202.22;4923696;29;20440;-84
2023/10/09 02:50:28;;;;;;;6.95;2.08;;;;;;;8.75;100.00;101206.28;4929693;29;20434;-82
2023/10/09 02:53:08;;;;;;;7.70;2.30;;;;;;;8.84;100.00;101212.09;4924699;29;20467;-82
2023/10/09 02:55:42;;;;;;;5.43;2.20;;;;;;;8.81;100.00;101228.84;4924752;29;20429;-85
2023/10/09 02:58:20;;;;;;;8.48;2.63;;;;;;;8.96;100.00;101229.03;4933736;29;20440;-82
2023/10/09 03:00:54;;;;;;;8.40;2.30;;;;;;;8.88;100.00;101224.06;4918010;29;20431;-82
2023/10/09 03:03:22;;;;;;;7.00;2.40;;;;;;;8.85;100.00;101209.13;4922800;29;20476;-82
2023/10/09 03:05:50;;;;;;;8.50;2.15;;;;;;;8.81;100.00;101188.16;4921017;29;20452;-82
2023/10/09 03:08:19;;;;;;;6.15;2.45;;;;;;;8.88;100.00;101186.06;4933502;29;20443;-82
2023/10/09 03:10:48;;;;;;;4.10;2.20;;;;;;;8.92;100.00;101186.38;4931369;29;20469;-83
2023/10/09 03:13:23;;;;;;;7.88;2.10;;;;;;;8.77;100.00;101179.72;4926161;29;20439;-82
2023/10/09 03:15:56;;;;;;;5.78;2.05;;;;;;;8.79;100.00;101195.75;4929583;29;20427;-83
2023/10/09 03:18:31;;;;;;;5.93;2.10;;;;;;;8.84;100.00;101184.94;4927346;29;20439;-83
2023/10/09 03:20:59;;;;;;;6.47;2.30;;;;;;;8.83;100.00;101180.59;4927784;29;20438;-82
2023/10/09 03:23:34;;;;;;;6.65;2.10;;;;;;;8.81;100.00;101178.13;4929502;29;20440;-82
2023/10/09 03:26:03;;;;;;;6.57;2.28;;;;;;;8.84;100.00;101169.47;4930278;29;20427;-82
2023/10/09 03:28:38;;;;;;;7.03;2.40;;;;;;;8.82;100.00;101158.06;4931314;29;20416;-83
2023/10/09 03:31:06;;;;;;;8.15;2.60;;;;;;;8.83;100.00;101156.16;4933594;29;20431;-82
2023/10/09 03:33:40;;;;;;;6.15;2.38;;;;;;;8.75;100.00;101154.72;4931126;29;20427;-82
2023/10/09 03:36:10;;;;;;;6.53;2.30;;;;;;;8.78;100.00;101147.97;4944004;29;20435;-82
2023/10/09 03:38:44;;;;;;;8.80;2.40;;;;;;;8.75;100.00;101137.63;4927950;29;20442;-82
2023/10/09 03:41:18;;;;;;;6.82;2.30;;;;;;;8.78;100.00;101134.38;4929258;29;21032;-82
2023/10/09 03:43:54;;;;;;;7.70;2.42;;;;;;;8.68;100.00;101144.06;4921149;29;20429;-82
2023/10/09 03:46:32;;;;;;;6.40;2.28;;;;;;;8.74;100.00;101152.25;4940961;29;20768;-82
2023/10/09 03:49:10;;;;;;;7.97;2.40;;;;;;;8.74;100.00;101146.84;4922201;29;20415;-83
2023/10/09 03:51:45;;;;;;;6.45;2.40;;;;;;;8.74;100.00;101144.97;4927408;29;20432;-83
2023/10/09 03:54:20;;;;;;;6.50;2.40;;;;;;;8.80;100.00;101137.69;4926383;29;20454;-84
2023/10/09 03:56:49;;;;;;;7.18;2.30;;;;;;;8.73;100.00;101143.31;4928169;29;21116;-82
2023/10/09 03:59:26;;;;;;;6.70;2.28;;;;;;;8.64;100.00;101132.06;4922858;29;20440;-83
2023/10/09 04:01:59;;;;;;;6.55;2.30;;;;;;;8.59;100.00;101136.63;4928754;29;20428;-82
2023/10/09 04:04:28;;;;;;;7.35;2.17;;;;;;;8.64;100.00;101142.94;4947471;29;20443;-82
2023/10/09 04:06:56;;;;;;;7.30;2.42;;;;;;;8.64;100.00;101137.50;4925903;29;20889;-83
2023/10/09 04:09:39;;;;;;;5.55;2.20;;;;;;;8.65;100.00;101130.19;4924802;29;20425;-83
2023/10/09 04:15:06;;;;;;;5.88;2.40;;;;;;;8.69;100.00;101120.47;4933464;29;20429;-84
2023/10/09 04:17:34;;;;;;;7.43;2.35;;;;;;;8.66;100.00;101124.50;4930330;29;20422;-82
2023/10/09 04:23:05;;;;;;;10.20;2.45;;;;;;;8.73;100.00;101121.59;4915612;29;20425;-82
2023/10/09 04:25:42;;;;;;;8.10;2.20;;;;;;;8.64;100.00;101107.66;4926256;29;20438;-82
2023/10/09 04:28:19;;;;;;;6.35;2.30;;;;;;;8.61;100.00;101112.78;4929134;29;20441;-83
2023/10/09 04:30:53;;;;;;;6.75;2.50;;;;;;;8.55;100.00;101114.63;4932881;29;20438;-83
2023/10/09 04:33:34;;;;;;;6.28;2.30;;;;;;;8.60;100.00;101111.97;4913666;29;20436;-83
2023/10/09 04:36:22;;;;;;;8.15;2.50;;;;;;;8.65;100.00;101100.34;4943891;28;20431;-82
2023/10/09 04:39:15;;;;;;;6.03;2.28;;;;;;;8.60;100.00;101092.16;4913647;29;21146;-83
2023/10/09 04:41:52;;;;;;;7.38;2.50;;;;;;;8.59;100.00;101082.38;4921862;29;20923;-82
2023/10/09 04:44:35;;;;;;;7.57;2.50;;;;;;;8.53;100.00;101078.78;4924145;29;20446;-83
2023/10/09 04:47:18;;;;;;;8.82;2.30;;;;;;;8.51;100.00;101076.34;4926417;29;20822;-82
2023/10/09 04:50:06;;;;;;;7.60;2.28;;;;;;;8.52;100.00;101082.59;4913105;29;20429;-83
2023/10/09 04:55:24;;;;;;;6.33;2.40;;;;;;;8.50;100.00;101080.13;4924321;29;20529;-83
2023/10/09 04:58:09;;;;;;;8.05;2.40;;;;;;;8.54;100.00;101082.34;4935270;29;20430;-83
2023/10/09 05:01:02;;;;;;;5.50;2.00;;;;;;;8.43;100.00;101076.78;4919584;29;20434;-82
2023/10/09 05:03:45;;;;;;;6.32;2.20;;;;;;;8.37;100.00;101066.13;4927477;29;20439;-84
2023/10/09 05:06:42;;;;;;;8.70;2.63;;;;;;;8.37;100.00;101075.09;4922961;29;20433;-84
2023/10/09 05:09:15;;;;;;;6.40;2.30;;;;;;;8.42;100.00;101067.00;4936749;29;20449;-83
2023/10/09 05:12:09;;;;;;;8.35;2.25;;;;;;;8.47;100.00;101074.41;4929106;29;20431;-82
2023/10/09 05:14:54;;;;;;;7.13;2.22;;;;;;;8.39;100.00;101081.06;4930264;29;20901;-83
2023/10/09 05:17:27;;;;;;;5.70;2.33;;;;;;;8.44;100.00;101080.31;4932769;29;20441;-83
2023/10/09 05:20:47;;;;;;;7.97;2.45;;;;;;;8.39;100.00;101081.06;4927526;29;20419;-83
2023/10/09 05:22:56;;;;;;;8.73;3.07;;;;;;;8.41;100.00;101073.50;4930188;29;20904;-83
2023/10/09 05:28:31;;;;;;;6.20;2.20;;;;;;;8.50;100.00;101063.03;4853885;29;20434;-83
2023/10/09 05:31:07;;;;;;;7.50;2.50;;;;;;;8.41;100.00;101046.38;4917355;29;20435;-83
2023/10/09 05:33:36;;;;;;;8.90;2.45;;;;;;;8.43;100.00;101032.56;4926069;29;20448;-83
2023/10/09 05:36:31;;;;;;;6.28;2.30;;;;;;;8.38;100.00;101027.91;4931679;29;20442;-82
2023/10/09 05:39:22;;;;;;;7.78;2.30;;;;;;;8.39;100.00;101026.81;4917714;29;20437;-83
2023/10/09 05:41:52;;;;;;;7.18;2.58;;;;;;;8.38;100.00;101024.38;4947505;28;20429;-83
2023/10/09 05:47:29;;;;;;;7.07;2.50;;;;;;;8.28;100.00;101025.09;4931596;29;20411;-83
2023/10/09 05:50:33;;;;;;;5.20;2.28;;;;;;;8.34;100.00;101022.19;4938705;28;20468;-83
2023/10/09 05:53:09;;;;;;;7.75;2.28;;;;;;;8.27;100.00;101024.28;4930268;29;20424;-83
2023/10/09 06:04:33;;;;;;;7.50;2.30;;;;;;;8.34;100.00;101015.91;4932927;29;20453;-83
2023/10/09 06:07:12;;;;;;;7.57;2.22;;;;;;;8.29;100.00;101014.00;4923555;29;20444;-83
2023/10/09 06:09:49;;;;;;;7.13;2.45;;;;;;;8.25;100.00;101031.03;4935445;29;20431;-83
2023/10/09 06:16:09;;;;;;;5.70;2.03;;;;;;;8.32;100.00;101043.31;5110288;27;2000475;-85
2023/10/09 06:18:41;;;;;;;5.50;2.15;;;;;;;8.29;100.00;101057.38;5162388;27;20396;-83
2023/10/09 06:24:14;;;;;;;6.38;2.10;;;;;;;8.23;100.00;101025.88;5183997;27;21061;-83
2023/10/09 06:29:50;;;;;;;11.52;3.55;;;;;;;8.16;100.00;101015.22;5160650;27;20423;-82
2023/10/09 06:32:34;;;;;;;8.13;2.45;;;;;;;8.23;100.00;101023.16;5165127;27;20404;-82
2023/10/09 06:35:18;;;;;;;7.47;3.00;;;;;;;8.26;100.00;101032.66;5184122;27;21349;-82
2023/10/09 06:43:28;;;;;;;6.05;2.00;;;;;;;8.23;100.00;101069.25;5181113;27;20429;-82
2023/10/09 06:48:56;;;;;;;6.55;1.90;;;;;;;8.28;100.00;101044.88;5181568;27;20441;-82
2023/10/09 06:51:41;;;;;;;7.85;2.20;;;;;;;8.20;100.00;101053.47;5164439;27;20414;-81
2023/10/09 06:54:09;;;;;;;6.30;2.23;;;;;;;8.27;100.00;101056.81;5162959;27;20538;-83
2023/10/09 06:59:43;;;;;;;6.38;2.08;;;;;;;8.18;100.00;101033.94;5125799;27;20422;-81
2023/10/09 07:05:17;;;;;;;7.85;2.40;;;;;;;8.16;100.00;101041.50;5140582;27;20894;-82
2023/10/09 07:07:54;;;;;;;8.55;2.58;;;;;;;8.20;100.00;101020.94;5142323;27;20412;-82
2023/10/09 07:10:39;;;;;;;8.57;2.45;;;;;;;8.11;100.00;101012.47;5151007;27;20416;-82
2023/10/09 07:13:07;;;;;;;8.83;2.60;;;;;;;8.13;100.00;101015.75;5113520;27;21957;-84
2023/10/09 07:18:23;;;;;;;9.35;2.78;;;;;;;8.15;100.00;101016.28;5141522;27;20813;-82
2023/10/09 07:21:11;;;;;;;7.18;2.55;;;;;;;8.16;100.00;101011.69;5130184;27;20440;-83
2023/10/09 07:23:49;;;;;;;7.65;3.00;;;;;;;8.25;100.00;101009.34;5117788;27;20423;-81
2023/10/09 07:26:23;;;;;;;11.90;3.30;;;;;;;8.13;100.00;101007.63;5098041;27;20448;-83
2023/10/09 07:29:00;;;;;;;6.60;2.90;;;;;;;8.28;100.00;101006.13;5103734;27;20431;-84
2023/10/09 07:31:45;;;;;;;9.90;3.13;;;;;;;8.33;100.00;101012.41;5120770;27;20426;-86
2023/10/09 07:34:52;;;;;;;9.60;3.00;;;;;;;8.33;100.00;101015.13;5104284;27;20409;-88
2023/10/09 07:37:24;;;;;;;9.25;2.90;;;;;;;8.41;100.00;101004.88;5104225;27;21001;-83
2023/10/09 07:39:58;;;;;;;7.40;3.00;;;;;;;8.41;100.00;100999.44;5121856;27;21329;-86
2023/10/09 07:46:29;;;;;;;7.55;3.05;;;;;;;8.38;100.00;101003.50;5106512;27;20417;-85
2023/10/09 07:48:04;;;;;;;9.63;3.53;;;;;;;8.33;100.00;101012.41;5101018;27;20424;-86
2023/10/09 07:50:48;;;;;;;8.27;3.30;;;;;;;8.40;100.00;101012.19;5118949;27;20498;-85
2023/10/09 07:53:26;;;;;;;8.25;3.20;;;;;;;8.44;100.00;101016.03;5096874;27;20432;-85
2023/10/09 07:55:55;;;;;;;7.97;3.40;;;;;;;8.56;100.00;101017.78;5099615;27;20449;-85
2023/10/09 07:58:25;;;;;;;8.18;3.53;;;;;;;8.53;100.00;101021.03;5120742;27;20453;-85
2023/10/09 08:01:15;;;;;;;13.25;4.70;;;;;;;8.61;100.00;101026.78;5126537;27;20417;-85
2023/10/09 08:03:46;;;;;;;8.02;3.42;;;;;;;8.66;100.00;101029.56;5100310;27;22306;-83
2023/10/09 08:09:46;;;;;;;8.90;4.80;;;;;;;8.65;100.00;101025.19;5063932;27;20435;-86
2023/10/09 08:12:38;;;;;;;12.73;6.53;;;;;;;8.66;100.00;101026.84;5106153;27;20435;-85
2023/10/09 08:15:25;;;;;;;10.40;4.72;;;;;;;8.67;100.00;101030.34;5083354;27;21223;-84
2023/10/09 08:17:54;;;;;;;9.02;4.28;;;;;;;8.70;100.00;101026.31;5097569;27;20434;-85
2023/10/09 08:20:25;;;;;;;8.27;3.85;;;;;;;8.65;100.00;101037.94;5099739;27;20437;-85
2023/10/09 08:23:04;;;;;;;10.25;4.43;;;;;;;8.70;100.00;101024.44;5126475;27;20526;-85
2023/10/09 08:25:57;;;;;;;10.38;5.00;;;;;;;8.70;100.00;101027.16;5122590;27;20427;-85
2023/10/09 08:28:39;;;;;;;10.60;4.97;;;;;;;8.79;100.00;101030.19;5104927;27;20416;-84
2023/10/09 08:31:19;;;;;;;9.18;4.38;;;;;;;8.81;100.00;101031.59;5100230;27;20409;-86
2023/10/09 08:33:57;;;;;;;9.63;4.57;;;;;;;8.74;100.00;101028.28;5100904;27;20432;-86
2023/10/09 08:36:28;;;;;;;8.93;4.10;;;;;;;8.79;100.00;101022.06;5106772;27;20413;-85
2023/10/09 08:38:58;;;;;;;8.60;4.30;;;;;;;8.92;100.00;101032.47;5121544;27;20425;-85
2023/10/09 08:41:30;;;;;;;10.63;4.35;;;;;;;8.78;100.00;101026.69;5117687;27;20921;-85
2023/10/09 08:43:59;;;;;;;10.83;4.20;;;;;;;8.81;100.00;101028.88;5103090;27;20523;-85
2023/10/09 08:46:28;;;;;;;8.70;4.00;;;;;;;8.82;100.00;101019.66;5107703;27;20399;-86
2023/10/09 08:49:04;;;;;;;9.35;3.70;;;;;;;8.89;100.00;101032.16;5121425;27;21770;-85
2023/10/09 08:51:39;;;;;;;11.52;4.05;;;;;;;8.97;100.00;101035.22;5124837;27;20443;-85
2023/10/09 08:54:11;;;;;;;8.18;3.72;;;;;;;8.96;100.00;101030.06;5109244;27;20432;-84
2023/10/09 08:56:49;;;;;;;6.53;3.67;;;;;;;9.00;100.00;101023.84;5123498;27;20422;-84
2023/10/09 08:59:19;;;;;;;9.75;4.22;;;;;;;9.09;100.00;101028.81;5106287;27;20425;-85
2023/10/09 09:01:51;;;;;;;8.82;3.92;;;;;;;9.04;100.00;101026.03;5102879;27;20425;-86
2023/10/09 09:04:36;;;;;;;9.00;4.03;;;;;;;9.05;100.00;101016.81;5107885;27;20476;-85
2023/10/09 09:07:25;;;;;;;7.38;3.88;;;;;;;9.12;100.00;101020.94;5118889;27;20428;-84
2023/10/09 09:10:00;;;;;;;7.35;4.13;;;;;;;9.04;100.00;101026.03;5124156;27;20410;-84
2023/10/09 09:12:40;;;;;;;9.50;3.63;;;;;;;9.09;100.00;101009.78;5099164;27;20434;-86
2023/10/09 09:15:20;;;;;;;10.98;3.88;;;;;;;9.21;100.00;101015.00;5101414;27;20425;-86
2023/10/09 09:17:49;;;;;;;8.68;3.65;;;;;;;9.16;100.00;101010.38;5117936;27;21439;-86
2023/10/09 09:20:28;;;;;;;8.85;3.72;;;;;;;9.17;100.00;101010.13;5095717;27;20421;-86
2023/10/09 09:22:57;;;;;;;8.77;3.90;;;;;;;9.35;100.00;101014.28;5120643;27;20428;-87
2023/10/09 09:25:26;;;;;;;7.40;3.75;;;;;;;9.33;100.00;101013.72;5103055;27;20426;-87
2023/10/09 09:28:09;;;;;;;9.77;3.92;;;;;;;9.29;100.00;101011.81;5103368;27;20411;-88
2023/10/09 09:30:37;;;;;;;7.82;3.50;;;;;;;9.36;100.00;101015.09;5097109;27;21943;-88
2023/10/09 09:33:26;;;;;;;8.30;3.40;;;;;;;9.34;100.00;101011.84;5100009;27;20937;-87
2023/10/09 09:35:59;;;;;;;6.50;3.25;;;;;;;9.38;100.00;101010.22;5100111;27;20429;-87
2023/10/09 09:38:28;;;;;;;8.15;3.08;;;;;;;9.32;100.00;101022.97;5096407;27;20426;-87
2023/10/09 09:41:02;;;;;;;8.00;3.17;;;;;;;9.38;100.00;101010.22;5097376;27;21303;-85
2023/10/09 09:43:40;;;;;;;5.80;3.00;;;;;;;9.36;100.00;101015.94;5119544;27;20735;-87
2023/10/09 09:46:15;;;;;;;5.33;2.80;;;;;;;9.39;100.00;101003.72;5102754;27;20482;-87
2023/10/09 09:48:49;;;;;;;6.20;2.80;;;;;;;9.45;100.00;101010.81;5099632;27;20424;-86
2023/10/09 09:51:23;;;;;;;6.60;3.00;;;;;;;9.47;100.00;101008.66;5105347;27;20426;-86
2023/10/09 09:53:57;;;;;;;8.88;3.10;;;;;;;9.34;100.00;101006.41;5105971;27;20426;-86
2023/10/09 09:56:33;;;;;;;6.82;3.30;;;;;;;9.33;100.00;101011.00;5122313;27;20410;-86
2023/10/09 09:59:13;;;;;;;8.68;3.60;;;;;;;9.44;100.00;101001.00;5107799;27;20420;-86
2023/10/09 10:01:56;;;;;;;5.75;2.90;;;;;;;9.52;100.00;100988.84;5098925;27;20413;-85
2023/10/09 10:04:35;;;;;;;5.97;2.80;;;;;;;9.62;100.00;100985.34;5098696;27;20424;-86
2023/10/09 10:07:10;;;;;;;7.05;3.00;;;;;;;9.66;100.00;100975.56;5114200;27;20420;-86
2023/10/09 10:09:44;;;;;;;4.70;2.70;;;;;;;9.69;100.00;100978.59;5100405;27;20425;-85
2023/10/09 10:12:14;;;;;;;5.25;2.80;;;;;;;9.77;100.00;100971.00;5099060;27;20448;-85
2023/10/09 10:14:56;;;;;;;6.00;3.00;;;;;;;9.80;100.00;100973.97;5063286;28;20424;-85
2023/10/09 10:17:30;;;;;;;5.75;2.80;;;;;;;9.84;100.00;100975.06;5086041;28;20436;-85
2023/10/09 10:23:18;;;;;;;5.23;2.90;;;;;;;9.95;100.00;100986.00;5083703;28;20482;-84
2023/10/09 10:25:50;;;;;;;5.72;2.60;;;;;;;9.93;100.00;100985.44;5087849;28;20428;-82
2023/10/09 10:31:13;;;;;;;5.90;2.78;;;;;;;9.73;100.00;100987.00;5081606;28;20428;-85
2023/10/09 10:34:10;;;;;;;5.35;2.70;;;;;;;9.70;100.00;100985.63;5089020;28;20432;-84
2023/10/09 10:36:42;;;;;;;7.38;2.70;;;;;;;9.77;100.00;100990.81;5090750;28;20423;-85
2023/10/09 10:39:21;;;;;;;4.75;2.65;;;;;;;9.73;100.00;100987.00;5093495;28;20431;-85
2023/10/09 10:41:57;;;;;;;4.50;2.45;;;;;;;9.77;100.00;100993.53;5089612;28;20792;-86
2023/10/09 10:44:37;;;;;;;4.90;2.58;;;;;;;9.87;100.00;100985.44;5084674;28;21843;-85
2023/10/09 10:47:22;;;;;;;5.80;2.85;;;;;;;9.87;100.00;100988.16;5085733;28;21361;-84
2023/10/09 10:49:51;;;;;;;5.85;2.67;;;;;;;10.04;100.00;100982.47;5086594;28;20412;-85
2023/10/09 10:52:41;;;;;;;5.25;2.72;;;;;;;10.00;100.00;100986.00;5085785;28;20424;-86
2023/10/09 10:55:48;;;;;;;5.07;2.67;;;;;;;10.05;100.00;100975.13;5086174;28;20420;-85
2023/10/09 10:58:23;;;;;;;5.00;2.50;;;;;;;9.97;100.00;100968.34;5084586;28;20439;-86
2023/10/09 11:01:14;;;;;;;4.57;2.40;;;;;;;10.08;100.00;100973.78;5089267;28;20423;-85
2023/10/09 11:03:58;;;;;;;5.20;2.50;;;;;;;10.09;100.00;100967.25;5091381;28;21055;-85
2023/10/09 11:06:38;;;;;;;6.82;2.80;;;;;;;10.00;100.00;100958.81;5093665;28;20432;-85
2023/10/09 11:09:21;;;;;;;7.53;2.83;;;;;;;9.94;100.00;100968.03;5088663;28;20478;-86
2023/10/09 11:11:50;;;;;;;6.85;3.33;;;;;;;9.96;100.00;100963.97;5092938;28;20420;-86
2023/10/09 11:14:23;;;;;;;8.45;3.90;;;;;;;10.07;100.00;100966.69;5059153;28;20441;-85
2023/10/09 11:16:57;;;;;;;9.40;4.18;;;;;;;10.06;100.00;100959.66;5092370;28;21083;-85
2023/10/09 11:19:31;;;;;;;8.43;3.05;;;;;;;10.09;100.00;100962.63;5091240;27;20998;-85
2023/10/09 11:25:12;;;;;;;8.70;3.85;;;;;;;10.00;100.00;100937.06;5029949;27;20408;-88
2023/10/09 11:27:50;;;;;;;7.68;2.97;;;;;;;10.09;100.00;100951.75;5037958;28;21358;-89
2023/10/09 11:30:32;;;;;;;5.10;2.40;;;;;;;10.13;100.00;100958.28;5026391;28;20444;-87
2023/10/09 11:33:13;;;;;;;6.90;3.50;;;;;;;10.16;100.00;100957.75;5026332;28;20433;-86
2023/10/09 11:35:44;;;;;;;3.95;2.13;;;;;;;10.23;100.00;100948.50;5031584;28;20440;-90
2023/10/09 11:38:22;;;;;;;6.38;3.00;;;;;;;10.17;100.00;100937.63;5033301;28;20419;-87
2023/10/09 11:41:16;;;;;;;4.90;2.58;;;;;;;10.11;100.00;100910.69;5037054;28;20764;-88
2023/10/09 11:43:53;;;;;;;6.55;2.80;;;;;;;10.34;100.00;100925.66;5031419;28;20845;-88
2023/10/09 11:49:34;;;;;;;11.10;4.40;;;;;;;10.50;100.00;100912.91;5004648;28;20448;-89
2023/10/09 11:54:56;;;;;;;5.72;2.90;;;;;;;10.69;100.00;100943.09;5030024;28;20432;-89
2023/10/09 11:57:33;;;;;;;5.37;3.27;;;;;;;10.62;100.00;100926.22;5038225;28;20441;-89
2023/10/09 12:00:24;;;;;;;4.25;2.10;;;;;;;10.46;100.00;100912.63;5035273;28;20425;-90
2023/10/09 12:02:53;;;;;;;3.90;2.20;;;;;;;10.62;100.00;100940.66;5029131;28;21140;-87
2023/10/09 12:05:22;;;;;;;3.55;2.00;;;;;;;10.61;100.00;100930.03;5034770;28;20414;-91
2023/10/09 12:07:54;;;;;;;3.30;1.90;;;;;;;10.50;100.00;100918.34;5036649;28;20467;-87
2023/10/09 12:10:25;;;;;;;3.40;1.80;;;;;;;10.68;100.00;100938.75;5034311;28;20439;-88
2023/10/09 12:12:57;;;;;;;4.63;1.90;;;;;;;10.48;100.00;100915.06;5027120;28;20966;-90
2023/10/09 12:15:36;;;;;;;4.28;1.92;;;;;;;10.59;100.00;100941.19;4981876;28;20433;-88
2023/10/09 12:18:08;;;;;;;3.13;1.90;;;;;;;10.54;100.00;100908.56;4979080;28;20427;-88
2023/10/09 12:20:37;;;;;;;3.27;1.90;;;;;;;10.51;100.00;100904.47;5000226;28;20432;-87
2023/10/09 12:23:06;;;;;;;4.07;1.80;;;;;;;10.69;100.00;100916.69;4986345;28;20431;-88
2023/10/09 12:25:35;;;;;;;2.40;1.50;;;;;;;10.75;100.00;100922.13;4990839;28;20660;-87
2023/10/09 12:28:12;;;;;;;2.30;1.42;;;;;;;10.74;100.00;100928.66;4984429;28;20428;-87
2023/10/09 12:30:47;;;;;;;2.10;1.40;;;;;;;10.76;100.00;100942.78;4997214;28;20428;-87
2023/10/09 12:33:15;;;;;;;2.15;1.65;;;;;;;10.68;100.00;100934.09;4986805;28;20427;-86
2023/10/09 12:35:45;;;;;;;3.35;1.40;;;;;;;10.79;100.00;100942.28;4988491;28;20437;-88
2023/10/09 12:38:18;;;;;;;2.03;1.50;;;;;;;10.71;100.00;100941.72;4971596;28;20421;-86
2023/10/09 12:40:51;;;;;;;2.60;1.75;;;;;;;10.74;100.00;100945.00;4967968;28;21017;-86
2023/10/09 12:43:21;;;;;;;7.15;3.60;;;;;;;10.83;100.00;100940.63;4967883;28;20926;-87
2023/10/09 12:45:50;;;;;;;9.27;4.15;;;;;;;10.87;100.00;100941.72;4975741;28;20421;-85
2023/10/09 12:48:18;;;;;;;7.03;3.08;;;;;;;10.79;100.00;100934.09;4969547;28;20955;-86
2023/10/09 12:50:47;;;;;;;13.40;5.20;;;;;;;10.77;100.00;100923.50;4971594;28;20436;-88
2023/10/09 12:53:17;;;;;;;12.33;6.17;;;;;;;10.93;100.00;100942.50;4983080;28;20428;-85
2023/10/09 12:55:56;;;;;;;5.70;2.78;;;;;;;10.99;100.00;100952.28;4967177;28;20441;-87
2023/10/09 12:58:26;;;;;;;6.00;3.05;;;;;;;10.87;100.00;100939.78;4974162;28;20432;-87
2023/10/09 13:00:55;;;;;;;2.67;1.60;;;;;;;10.87;100.00;100939.78;4985327;28;21125;-88
2023/10/09 13:03:28;;;;;;;3.17;1.80;;;;;;;10.87;100.00;100939.78;4972412;28;20439;-86
2023/10/09 13:05:56;;;;;;;3.05;1.83;;;;;;;10.88;100.00;100937.88;4972078;28;20759;-86
2023/10/09 13:08:31;;;;;;;6.50;3.35;;;;;;;10.89;100.00;100937.59;4978512;28;20801;-86
2023/10/09 13:11:10;;;;;;;6.97;3.77;;;;;;;10.95;100.00;100919.38;4969626;28;20424;-86
2023/10/09 13:13:41;;;;;;;6.90;3.80;;;;;;;10.98;100.00;100932.44;4951815;28;21541;-89
2023/10/09 13:16:13;;;;;;;4.93;2.13;;;;;;;11.01;100.00;100934.59;4977898;28;20426;-86
2023/10/09 13:18:49;;;;;;;5.75;3.25;;;;;;;10.81;100.00;100923.75;4965363;28;20823;-88
2023/10/09 13:21:19;;;;;;;6.75;3.75;;;;;;;11.02;100.00;100927.22;4971174;28;20852;-88